createdAt,value
2018-09-03T00:09:47.648Z,16.70
2018-09-03T00:29:36.457Z,16.80
2018-09-03T00:36:55.466Z,16.70
2018-09-03T00:39:31.733Z,16.60
2018-09-03T00:42:09.478Z,16.60
2018-09-03T00:44:45.580Z,16.60
2018-09-03T00:47:18.991Z,16.60
2018-09-03T00:49:50.547Z,16.50
2018-09-03T00:52:25.007Z,16.50
2018-09-03T00:54:54.769Z,16.50
2018-09-03T00:57:29.877Z,16.40
2018-09-03T01:00:01.829Z,16.40
2018-09-03T01:02:32.143Z,16.30
2018-09-03T01:05:03.272Z,16.30
2018-09-03T01:07:33.081Z,16.20
2018-09-03T01:10:06.319Z,16.20
2018-09-03T01:12:41.990Z,16.10
2018-09-03T01:15:19.016Z,16.10
2018-09-03T01:21:20.225Z,16.00
2018-09-03T01:23:55.979Z,15.90
2018-09-03T01:26:34.621Z,15.90
2018-09-03T01:29:07.570Z,15.90
2018-09-03T01:31:36.591Z,15.90
2018-09-03T01:34:35.430Z,15.80
2018-09-03T01:37:19.161Z,15.80
2018-09-03T01:40:03.078Z,15.80
2018-09-03T01:42:47.883Z,15.80
2018-09-03T01:45:16.614Z,15.80
2018-09-03T01:47:49.555Z,15.90
2018-09-03T01:50:18.980Z,15.90
2018-09-03T01:59:36.833Z,16.00
2018-09-03T02:02:07.084Z,16.20
2018-09-03T02:04:35.811Z,16.30
2018-09-03T02:07:06.448Z,16.30
2018-09-03T02:12:39.726Z,16.40
2018-09-03T02:15:09.654Z,16.40
2018-09-03T02:17:40.612Z,16.40
2018-09-03T02:20:11.852Z,16.40
2018-09-03T02:22:52.618Z,16.40
2018-09-03T03:00:20.362Z,16.40
2018-09-03T03:05:48.496Z,16.30
2018-09-03T03:08:18.751Z,16.30
2018-09-03T03:10:50.989Z,16.40
2018-09-03T03:13:29.225Z,16.30
2018-09-03T03:16:00.929Z,16.30
2018-09-03T03:18:33.657Z,16.30
2018-09-03T03:21:08.211Z,16.30
2018-09-03T03:23:41.521Z,16.30
2018-09-03T03:28:59.033Z,16.10
2018-09-03T03:36:42.667Z,16.00
2018-09-03T03:42:23.269Z,15.90
2018-09-03T03:44:56.102Z,15.80
2018-09-03T03:50:20.742Z,15.80
2018-09-03T04:18:33.169Z,15.70
2018-09-03T05:34:47.484Z,16.90
2018-09-03T05:43:55.096Z,17.20
2018-09-03T06:31:52.533Z,17.30
2018-09-03T06:34:20.918Z,17.80
2018-09-03T06:36:49.944Z,17.70
2018-09-03T06:39:26.387Z,17.70
2018-09-03T06:41:55.693Z,17.60
2018-09-03T06:44:24.106Z,17.70
2018-09-03T06:46:52.395Z,17.60
2018-09-03T06:49:23.767Z,17.50
2018-09-03T06:51:52.111Z,17.30
2018-09-03T06:54:20.727Z,17.30
2018-09-03T06:56:49.611Z,17.40
2018-09-03T06:59:17.887Z,17.40
2018-09-03T07:01:46.412Z,17.50
2018-09-03T07:04:14.951Z,17.60
2018-09-03T07:06:43.368Z,17.50
2018-09-03T07:09:15.448Z,17.70
2018-09-03T07:11:55.751Z,17.80
2018-09-03T07:14:27.547Z,17.80
2018-09-03T07:16:56.071Z,17.70
2018-09-03T07:19:24.904Z,17.60
2018-09-03T07:21:53.457Z,17.60
2018-09-03T07:24:22.145Z,17.40
2018-09-03T07:26:50.854Z,17.40
2018-09-03T07:29:20.280Z,17.30
2018-09-03T07:31:49.081Z,17.30
2018-09-03T07:34:18.791Z,17.40
2018-09-03T07:50:12.210Z,17.50
2018-09-03T07:52:40.584Z,18.60
2018-09-03T07:55:09.126Z,18.60
2018-09-03T07:57:38.540Z,18.60
2018-09-03T08:00:07.223Z,18.60
2018-09-03T08:02:52.372Z,18.60
2018-09-03T08:05:20.844Z,18.60
2018-09-03T08:07:49.350Z,18.90
2018-09-03T08:10:17.990Z,19.00
2018-09-03T08:12:47.625Z,19.20
2018-09-03T08:15:16.184Z,19.50
2018-09-03T08:17:45.462Z,19.70
2018-09-03T08:20:21.157Z,19.80
2018-09-03T08:22:49.598Z,20.10
2018-09-03T08:25:19.334Z,20.30
2018-09-03T08:27:47.902Z,20.60
2018-09-03T08:30:16.883Z,20.80
2018-09-03T08:32:45.470Z,20.90
2018-09-03T08:35:14.171Z,21.00
2018-09-03T08:40:21.877Z,21.20
2018-09-03T08:42:50.344Z,21.20
2018-09-03T08:45:19.251Z,21.90
2018-09-03T08:47:48.061Z,23.30
2018-09-03T08:50:16.768Z,23.40
2018-09-03T08:52:45.403Z,23.50
2018-09-03T08:55:13.815Z,23.50
2018-09-03T08:57:42.831Z,23.90
2018-09-03T09:00:11.174Z,24.00
2018-09-03T09:02:39.965Z,23.50
2018-09-03T09:05:08.465Z,23.80
2018-09-03T09:07:36.928Z,24.30
2018-09-03T09:10:05.283Z,24.60
2018-09-03T09:12:34.208Z,24.80
2018-09-03T09:15:02.673Z,24.60
2018-09-03T09:17:31.437Z,24.40
2018-09-03T09:19:59.924Z,24.80
2018-09-03T09:22:28.431Z,26.10
2018-09-03T09:24:57.041Z,26.60
2018-09-03T09:27:25.542Z,26.90
2018-09-03T09:29:54.165Z,26.90
2018-09-03T09:32:22.520Z,26.70
2018-09-03T09:34:51.004Z,26.40
2018-09-03T09:37:21.100Z,25.50
2018-09-03T09:39:51.100Z,25.30
2018-09-03T09:42:19.731Z,24.90
2018-09-03T09:44:48.299Z,24.80
2018-09-03T09:47:16.604Z,24.50
2018-09-03T09:49:47.370Z,24.60
2018-09-03T09:52:15.772Z,24.90
2018-09-03T09:54:46.763Z,25.30
2018-09-03T09:57:15.194Z,25.70
2018-09-03T09:59:44.091Z,25.60
2018-09-03T10:02:12.704Z,25.30
2018-09-03T10:04:41.212Z,25.10
2018-09-03T10:07:13.623Z,24.20
2018-09-03T10:09:41.922Z,24.70
2018-09-03T10:12:10.671Z,25.50
2018-09-03T10:14:40.042Z,26.20
2018-09-03T10:17:08.394Z,26.40
2018-09-03T10:19:37.059Z,27.00
2018-09-03T10:22:05.506Z,27.20
2018-09-03T10:24:34.093Z,27.50
2018-09-03T10:27:02.748Z,27.90
2018-09-03T10:29:31.116Z,28.10
2018-09-03T10:32:00.041Z,28.40
2018-09-03T10:34:28.711Z,28.70
2018-09-03T10:36:58.132Z,28.90
2018-09-03T10:39:26.491Z,28.90
2018-09-03T10:41:54.991Z,28.30
2018-09-03T10:44:24.922Z,28.80
2018-09-03T10:46:53.422Z,29.20
2018-09-03T10:49:21.849Z,29.40
2018-09-03T10:51:56.371Z,29.40
2018-09-03T10:54:26.483Z,28.90
2018-09-03T10:56:54.923Z,29.90
2018-09-03T10:59:23.826Z,30.20
2018-09-03T11:04:50.097Z,31.80
2018-09-03T11:07:27.495Z,31.70
2018-09-03T11:09:57.215Z,32.70
2018-09-03T11:12:25.819Z,34.00
2018-09-03T11:14:55.291Z,34.90
2018-09-03T11:17:23.789Z,36.60
2018-09-03T11:19:56.566Z,35.90
2018-09-03T11:22:27.602Z,37.10
2018-09-03T11:24:58.790Z,36.80
2018-09-03T11:27:27.349Z,35.50
2018-09-03T11:29:58.897Z,33.50
2018-09-03T11:32:27.645Z,31.70
2018-09-03T11:34:56.859Z,30.90
2018-09-03T11:37:25.385Z,30.60
2018-09-03T11:53:54.702Z,30.10
2018-09-03T11:56:23.329Z,27.50
2018-09-03T11:58:52.646Z,27.30
2018-09-03T12:01:21.104Z,27.30
2018-09-03T12:03:50.629Z,27.40
2018-09-03T12:06:19.295Z,27.40
2018-09-03T12:08:47.684Z,26.90
2018-09-03T12:11:16.256Z,26.80
2018-09-03T12:13:44.687Z,26.60
2018-09-03T12:16:17.124Z,26.30
2018-09-03T12:18:46.458Z,26.30
2018-09-03T12:21:15.794Z,26.10
2018-09-03T12:23:44.634Z,26.20
2018-09-03T12:26:13.288Z,26.40
2018-09-03T12:28:41.769Z,26.20
2018-09-03T12:31:10.445Z,25.90
2018-09-03T12:33:39.140Z,26.10
2018-09-03T12:36:07.596Z,26.40
2018-09-03T12:38:36.005Z,26.60
2018-09-03T12:41:05.417Z,26.40
2018-09-03T12:43:35.079Z,26.20
2018-09-03T12:46:04.819Z,25.80
2018-09-03T12:48:34.644Z,25.50
2018-09-03T12:51:03.986Z,25.10
2018-09-03T12:53:32.756Z,24.90
2018-09-03T12:56:02.269Z,24.70
2018-09-03T12:58:30.640Z,24.40
2018-09-03T13:00:59.105Z,24.10
2018-09-03T13:03:27.713Z,23.90
2018-09-03T13:05:56.569Z,23.70
2018-09-03T13:08:25.026Z,23.70
2018-09-03T13:11:00.672Z,23.70
2018-09-03T13:13:30.043Z,23.70
2018-09-03T13:15:58.588Z,23.90
2018-09-03T13:18:26.867Z,23.90
2018-09-03T13:20:55.222Z,23.90
2018-09-03T13:23:23.711Z,23.90
2018-09-03T13:25:52.165Z,23.90
2018-09-03T13:28:20.790Z,24.00
2018-09-03T13:30:49.334Z,24.10
2018-09-03T13:33:18.205Z,24.20
2018-09-03T13:35:46.737Z,24.40
2018-09-03T13:38:15.168Z,24.50
2018-09-03T13:40:44.451Z,24.60
2018-09-03T13:43:12.917Z,24.60
2018-09-03T13:45:41.592Z,24.40
2018-09-03T13:48:10.420Z,24.30
2018-09-03T13:50:38.851Z,24.10
2018-09-03T13:53:07.787Z,24.20
2018-09-03T13:55:36.137Z,24.20
2018-09-03T13:58:04.459Z,24.00
2018-09-03T14:00:32.764Z,24.00
2018-09-03T14:03:01.169Z,23.80
2018-09-03T14:05:29.837Z,23.70
2018-09-03T14:07:58.383Z,23.80
2018-09-03T14:10:26.780Z,23.80
2018-09-03T14:12:55.676Z,23.90
2018-09-03T14:19:04.650Z,24.00
2018-09-03T14:21:33.197Z,23.90
2018-09-03T14:24:01.554Z,23.90
2018-09-03T14:26:30.406Z,23.80
2018-09-03T14:28:59.126Z,23.80
2018-09-03T14:31:27.588Z,23.80
2018-09-03T14:33:56.112Z,23.80
2018-09-03T14:36:24.514Z,23.70
2018-09-03T14:38:53.032Z,23.70
2018-09-03T14:41:22.442Z,23.70
2018-09-03T14:43:53.792Z,23.70
2018-09-03T14:46:22.222Z,23.60
2018-09-03T14:48:50.729Z,23.60
2018-09-03T14:51:19.184Z,23.50
2018-09-03T14:53:47.794Z,23.40
2018-09-03T14:56:16.998Z,23.30
2018-09-03T14:58:46.505Z,23.10
2018-09-03T15:01:15.117Z,23.00
2018-09-03T15:03:43.968Z,23.00
2018-09-03T15:06:12.527Z,23.10
2018-09-03T15:08:41.210Z,23.00
2018-09-03T15:11:09.619Z,23.00
2018-09-03T15:13:38.144Z,23.10
2018-09-03T15:16:06.687Z,23.30
2018-09-03T15:19:09.137Z,23.40
2018-09-03T15:21:46.319Z,23.50
2018-09-03T15:24:34.604Z,23.60
2018-09-03T15:27:10.795Z,23.70
2018-09-03T15:29:46.636Z,24.00
2018-09-03T15:32:19.503Z,24.20
2018-09-03T15:37:41.439Z,24.60
2018-09-03T15:40:51.907Z,24.80
2018-09-03T15:43:37.400Z,24.90
2018-09-03T15:46:14.287Z,25.00
2018-09-03T15:48:57.808Z,24.90
2018-09-03T15:51:37.980Z,24.70
2018-09-03T15:54:17.428Z,24.60
2018-09-03T15:56:48.720Z,24.50
2018-09-03T15:59:23.879Z,24.40
2018-09-03T16:01:59.884Z,24.30
2018-09-03T16:07:22.524Z,24.30
2018-09-03T16:09:59.730Z,24.40
2018-09-03T16:12:49.298Z,24.40
2018-09-03T16:15:30.846Z,24.50
2018-09-03T16:20:28.906Z,24.40
2018-09-03T16:23:01.372Z,24.40
2018-09-03T16:34:25.767Z,24.10
2018-09-03T16:36:54.269Z,24.10
2018-09-03T16:42:45.505Z,24.00
2018-09-03T16:49:14.773Z,23.90
2018-09-03T16:51:46.196Z,23.80
2018-09-03T16:54:20.819Z,23.70
2018-09-03T16:56:51.367Z,23.60
2018-09-03T16:59:23.993Z,23.60
2018-09-03T17:02:00.057Z,23.50
2018-09-03T17:04:28.786Z,23.40
2018-09-03T17:06:58.367Z,23.30
2018-09-03T17:09:32.778Z,23.20
2018-09-03T17:12:01.481Z,23.10
2018-09-03T17:14:36.150Z,23.10
2018-09-03T17:17:06.138Z,23.10
2018-09-03T17:19:36.738Z,23.00
2018-09-03T17:22:23.572Z,22.90
2018-09-03T17:30:29.073Z,22.70
2018-09-03T17:32:59.140Z,22.60
2018-09-03T17:35:37.169Z,22.50
2018-09-03T17:38:09.672Z,22.40
2018-09-03T17:40:45.902Z,22.30
2018-09-03T17:43:14.892Z,22.30
2018-09-03T17:45:49.334Z,22.20
2018-09-03T17:48:19.198Z,22.20
2018-09-03T17:50:47.895Z,22.10
2018-09-03T17:53:17.732Z,22.00
2018-09-03T17:55:47.864Z,22.00
2018-09-03T18:07:18.932Z,21.90
2018-09-03T18:09:47.124Z,21.70
2018-09-03T18:12:15.895Z,21.60
2018-09-03T18:14:44.087Z,21.60
2018-09-03T18:17:12.265Z,21.50
2018-09-03T18:19:40.947Z,21.40
2018-09-03T18:22:09.098Z,21.30
2018-09-03T18:24:37.263Z,21.20
2018-09-03T18:27:05.581Z,21.20
2018-09-03T18:29:33.761Z,21.20
2018-09-03T18:32:02.377Z,21.10
2018-09-03T18:34:31.367Z,21.10
2018-09-03T18:36:59.674Z,21.10
2018-09-03T18:39:28.732Z,21.10
2018-09-03T18:41:57.093Z,21.00
2018-09-03T18:44:25.301Z,21.00
2018-09-03T18:46:53.599Z,20.90
2018-09-03T18:49:21.812Z,20.90
2018-09-03T18:51:50.699Z,20.90
2018-09-03T18:54:18.885Z,20.80
2018-09-03T18:56:47.057Z,20.80
2018-09-03T18:59:15.386Z,20.70
2018-09-03T19:01:43.607Z,20.70
2018-09-03T19:04:11.810Z,20.60
2018-09-03T19:06:40.134Z,20.50
2018-09-03T19:09:08.951Z,20.50
2018-09-03T19:11:37.405Z,20.40
2018-09-03T19:14:05.778Z,20.40
2018-09-03T19:16:33.958Z,20.40
2018-09-03T19:19:02.161Z,20.40
2018-09-03T19:21:30.392Z,20.40
2018-09-03T19:23:58.810Z,20.30
2018-09-03T19:26:26.974Z,20.30
2018-09-03T19:28:55.177Z,20.30
2018-09-03T19:31:23.706Z,20.20
2018-09-03T19:33:51.907Z,20.20
2018-09-03T19:36:20.128Z,20.20
2018-09-03T19:38:49.017Z,20.20
2018-09-03T19:41:17.477Z,20.10
2018-09-03T19:43:46.224Z,20.10
2018-09-03T19:46:14.396Z,20.10
2018-09-03T19:48:43.196Z,20.10
2018-09-03T19:51:11.438Z,20.20
2018-09-03T19:53:39.883Z,20.20
2018-09-03T19:56:08.113Z,20.20
2018-09-03T19:58:36.386Z,20.20
2018-09-03T20:01:04.834Z,20.20
2018-09-03T20:03:32.999Z,20.20
2018-09-03T20:06:01.270Z,20.20
2018-09-03T20:08:29.761Z,20.20
2018-09-03T20:10:58.143Z,20.20
2018-09-03T20:13:26.391Z,20.20
2018-09-03T20:15:54.576Z,20.20
2018-09-03T20:18:22.793Z,20.20
2018-09-03T20:20:51.024Z,20.20
2018-09-03T20:23:19.317Z,20.20
2018-09-03T20:25:48.009Z,20.20
2018-09-03T20:28:16.198Z,20.20
2018-09-03T20:30:44.421Z,20.20
2018-09-03T20:33:12.651Z,20.20
2018-09-03T20:35:40.895Z,20.20
2018-09-03T20:38:09.191Z,20.20
2018-09-03T20:40:37.479Z,20.20
2018-09-03T20:43:05.643Z,20.20
2018-09-03T20:45:34.078Z,20.10
2018-09-03T20:48:02.312Z,20.10
2018-09-03T20:50:30.481Z,20.10
2018-09-03T20:52:58.705Z,20.10
2018-09-03T20:55:27.017Z,20.10
2018-09-03T20:57:55.188Z,20.10
2018-09-03T21:00:23.391Z,20.10
2018-09-03T21:02:51.948Z,20.10
2018-09-03T21:05:20.064Z,20.10
2018-09-03T21:07:48.193Z,20.10
2018-09-03T21:10:16.524Z,20.10
2018-09-03T21:12:44.695Z,20.20
2018-09-03T21:15:12.933Z,20.20
2018-09-03T21:17:41.430Z,20.20
2018-09-03T21:20:09.705Z,20.20
2018-09-03T21:22:37.901Z,20.20
2018-09-03T21:25:06.205Z,20.20
2018-09-03T21:27:34.498Z,20.20
2018-09-03T21:30:02.817Z,20.20
2018-09-03T21:32:31.069Z,20.20
2018-09-03T21:34:59.276Z,20.20
2018-09-03T21:37:27.487Z,20.10
2018-09-03T21:39:55.706Z,20.10
2018-09-03T21:42:23.921Z,20.10
2018-09-03T21:44:52.176Z,20.10
2018-09-03T21:47:20.564Z,20.10
2018-09-03T21:49:48.938Z,20.00
2018-09-03T21:52:17.677Z,20.00
2018-09-03T21:54:45.877Z,20.00
2018-09-03T21:57:14.078Z,19.90
2018-09-03T21:59:42.628Z,19.90
2018-09-03T22:02:10.993Z,19.90
2018-09-03T22:04:41.103Z,19.90
2018-09-03T22:07:09.321Z,19.90
2018-09-03T22:09:37.501Z,19.90
2018-09-03T22:12:05.961Z,19.80
2018-09-03T22:14:34.189Z,19.80
2018-09-03T22:17:02.894Z,19.70
2018-09-03T22:19:31.053Z,19.70
2018-09-03T22:21:59.543Z,19.70
2018-09-03T22:24:28.454Z,19.70
2018-09-03T22:26:57.001Z,19.70
2018-09-03T22:29:25.359Z,19.60
2018-09-03T22:31:53.572Z,19.60
2018-09-03T22:34:21.830Z,19.60
2018-09-03T22:36:50.190Z,19.60
2018-09-03T22:39:18.470Z,19.60
2018-09-03T22:41:46.834Z,19.60
2018-09-03T22:44:15.103Z,19.60
2018-09-03T22:46:43.441Z,19.60
2018-09-03T22:49:11.764Z,19.50
2018-09-03T22:51:40.659Z,19.60
2018-09-03T22:54:09.595Z,19.60
2018-09-03T22:56:37.752Z,19.60
2018-09-03T22:59:06.016Z,19.60
2018-09-03T23:01:34.349Z,19.60
2018-09-03T23:04:02.559Z,19.60
2018-09-03T23:06:30.754Z,19.60
2018-09-03T23:08:58.901Z,19.60
2018-09-03T23:11:27.269Z,19.60
2018-09-03T23:13:55.629Z,19.60
2018-09-03T23:16:24.036Z,19.60
2018-09-03T23:18:52.789Z,19.60
2018-09-03T23:21:21.107Z,19.60
2018-09-03T23:23:49.259Z,19.50
2018-09-03T23:26:18.671Z,19.50
2018-09-03T23:28:47.024Z,19.40
2018-09-03T23:31:15.514Z,19.40
2018-09-03T23:33:43.783Z,19.30
2018-09-03T23:36:11.994Z,19.20
2018-09-03T23:38:40.973Z,19.10
2018-09-03T23:41:09.254Z,19.00
2018-09-03T23:43:37.381Z,19.00
2018-09-03T23:46:05.704Z,19.00
2018-09-03T23:48:34.012Z,18.80
2018-09-03T23:51:02.190Z,18.80
2018-09-03T23:53:31.114Z,18.80
2018-09-03T23:55:59.480Z,18.70
2018-09-03T23:58:27.880Z,18.70
